Darstellungsparameter: Aktuell verwendete Einstellungen:
Skalierung der Graphiken ... ?
xyx+y,   Skalierungsfaktor:      Skalierung: Modus: x, Faktor: 1
Darstellungszeitraum ... ?
Vom - - bis: - -   Zeitraum: 22.02.2022 - 22.02.2022
Min/Max/Avg-Anzeige ... ?
Zeige MMA aktuell
Zeige MMA Monat
Zeige MMA alles
Zeige --A aktuell
Zeige --A Monat
Zeige --A alles
Keine MMA-Anzeige
MMA:
Average (ber die Originaldaten)
MMA-Basis: 22.02.2022 - 22.02.2022
Quicknavigation für Darstellung... ?
Tage:      1T, 2T, 3T, 5T -1T -2T -3T -5T +1T +2T +3T +5T
Wochen: 1W, 2W, 3W -1W -2W -3W +1W +2W +3W
Monate: 1M, 3M, 6M -1M -3M -6M +1M +3M +6M
Jahre:    1J, 3J, 5J, 10J -1J -3J -5J -10J +1J +3J +5J +10J
Nutze für die Darstellung ... ?
Originaldaten oder Mittelwerte auf ...
Stundenbasis Tagesbasis Wochenbasis
Monatsbasis Jahresbasis      Datenbasis: Original-Daten
Darstellen als:
Statistik (Auto) Statistik J:M      Darstellung:
Zur Graphik,    zurück zur Übersicht aller Sensoren.
 
Tabellarische Datenbersicht: ?
 
Sensor: Nr:Datum:Temp:Abs-Feuchte:Windchill:Wind:
Aussen-T/F 1 22-02-2022 00:00:00 7.1 C 6.01 g/m*3 3.8 C 19.3 km/h
2 22-02-2022 00:05:00 7.1 C 6.01 g/m*3 3.98 C 17.7 km/h
3 22-02-2022 00:10:00 6.9 C 5.93 g/m*3 4.68 C 11.3 km/h
4 22-02-2022 00:15:00 6.9 C 5.93 g/m*3 4.41 C 12.9 km/h
5 22-02-2022 00:20:00 6.8 C 5.89 g/m*3 4.04 C 14.5 km/h
6 22-02-2022 00:25:00 6.8 C 5.89 g/m*3 3.82 C 16.1 km/h
7 22-02-2022 00:30:00 6.8 C 5.89 g/m*3 3.82 C 16.1 km/h
8 22-02-2022 00:35:00 6.8 C 5.89 g/m*3 4.56 C 11.3 km/h
9 22-02-2022 00:40:00 6.8 C 5.81 g/m*3 4.56 C 11.3 km/h
10 22-02-2022 00:45:00 6.8 C 5.81 g/m*3 4.56 C 11.3 km/h
11 22-02-2022 00:50:00 6.8 C 5.81 g/m*3 4.56 C 11.3 km/h
12 22-02-2022 00:55:00 6.8 C 5.89 g/m*3 4.29 C 12.9 km/h
13 22-02-2022 01:00:00 6.7 C 5.77 g/m*3 4.17 C 12.9 km/h
14 22-02-2022 01:05:00 6.8 C 5.81 g/m*3 4.87 C 9.7 km/h
15 22-02-2022 01:10:00 6.7 C 5.77 g/m*3 3.92 C 14.5 km/h
16 22-02-2022 01:15:00 6.7 C 5.77 g/m*3 4.44 C 11.3 km/h
17 22-02-2022 01:20:00 6.6 C 5.74 g/m*3 3.17 C 19.3 km/h
18 22-02-2022 01:25:00 6.6 C 5.74 g/m*3 3.36 C 17.7 km/h
19 22-02-2022 01:30:00 6.7 C 5.77 g/m*3 4.44 C 11.3 km/h
20 22-02-2022 01:35:00 6.6 C 5.74 g/m*3 2.99 C 20.9 km/h
21 22-02-2022 01:40:00 6.6 C 5.81 g/m*3 3.17 C 19.3 km/h
22 22-02-2022 01:45:00 6.6 C 5.81 g/m*3 4.32 C 11.3 km/h
23 22-02-2022 01:50:00 6.6 C 5.81 g/m*3 4.99 C 8.1 km/h
24 22-02-2022 01:55:00 6.7 C 5.85 g/m*3 4.17 C 12.9 km/h
25 22-02-2022 02:00:00 6.7 C 5.85 g/m*3 3.69 C 16.1 km/h
Sensor: Nr:Datum:Temp:Abs-Feuchte:Windchill:Wind:
Aussen-T/F 26 22-02-2022 02:05:00 6.8 C 5.89 g/m*3 3.24 C 20.9 km/h
27 22-02-2022 02:10:00 6.8 C 5.89 g/m*3 3.61 C 17.7 km/h
28 22-02-2022 02:15:00 6.8 C 5.89 g/m*3 3.82 C 16.1 km/h
29 22-02-2022 02:20:00 6.8 C 5.89 g/m*3 4.29 C 12.9 km/h
30 22-02-2022 02:25:00 6.8 C 5.89 g/m*3 4.87 C 9.7 km/h
31 22-02-2022 02:30:00 6.8 C 5.89 g/m*3 2.48 C 29 km/h
32 22-02-2022 02:35:00 6.8 C 5.89 g/m*3 3.82 C 16.1 km/h
33 22-02-2022 02:40:00 6.7 C 5.85 g/m*3 4.17 C 12.9 km/h
34 22-02-2022 02:45:00 6.7 C 5.85 g/m*3 4.44 C 11.3 km/h
35 22-02-2022 02:50:00 6.6 C 5.89 g/m*3 4.04 C 12.9 km/h
36 22-02-2022 02:55:00 6.6 C 5.89 g/m*3 3.57 C 16.1 km/h
37 22-02-2022 03:00:00 6.6 C 5.89 g/m*3 4.32 C 11.3 km/h
38 22-02-2022 03:05:00 6.5 C 5.85 g/m*3 3.67 C 14.5 km/h
39 22-02-2022 03:10:00 6.4 C 5.81 g/m*3 4.75 C 8.1 km/h
40 22-02-2022 03:15:00 6.4 C 5.89 g/m*3 4.08 C 11.3 km/h
41 22-02-2022 03:20:00 6.3 C 5.85 g/m*3 2.43 C 22.5 km/h
42 22-02-2022 03:25:00 6.3 C 5.85 g/m*3 3.43 C 14.5 km/h
43 22-02-2022 03:30:00 6.3 C 5.85 g/m*3 4.27 C 9.7 km/h
44 22-02-2022 03:35:00 6.3 C 5.92 g/m*3 3.96 C 11.3 km/h
45 22-02-2022 03:40:00 6.3 C 5.92 g/m*3 2.98 C 17.7 km/h
46 22-02-2022 03:45:00 6.3 C 5.85 g/m*3 3.43 C 14.5 km/h
47 22-02-2022 03:50:00 6.4 C 5.89 g/m*3 4.75 C 8.1 km/h
48 22-02-2022 03:55:00 6.4 C 5.89 g/m*3 3.8 C 12.9 km/h
49 22-02-2022 04:00:00 6.4 C 5.89 g/m*3 3.8 C 12.9 km/h
50 22-02-2022 04:05:00 6.4 C 5.89 g/m*3 3.55 C 14.5 km/h
Sensor: Nr:Datum:Temp:Abs-Feuchte:Windchill:Wind:
Aussen-T/F 51 22-02-2022 04:10:00 6.3 C 5.77 g/m*3 3.68 C 12.9 km/h
52 22-02-2022 04:15:00 6.3 C 5.77 g/m*3 2.98 C 17.7 km/h
53 22-02-2022 04:20:00 6.3 C 5.85 g/m*3 5.1 C 6.4 km/h
54 22-02-2022 04:25:00 6.2 C 5.74 g/m*3 3.3 C 14.5 km/h
55 22-02-2022 04:30:00 6.2 C 5.74 g/m*3 3.3 C 14.5 km/h
56 22-02-2022 04:35:00 6.2 C 5.74 g/m*3 3.3 C 14.5 km/h
57 22-02-2022 04:40:00 6.2 C 5.74 g/m*3 3.56 C 12.9 km/h
58 22-02-2022 04:45:00 6.2 C 5.74 g/m*3 3.84 C 11.3 km/h
59 22-02-2022 04:50:00 6.2 C 5.74 g/m*3 3.3 C 14.5 km/h
60 22-02-2022 04:55:00 6.2 C 5.74 g/m*3 3.3 C 14.5 km/h
61 22-02-2022 05:00:00 6.1 C 5.7 g/m*3 4.4 C 8.1 km/h
62 22-02-2022 05:05:00 6.1 C 5.7 g/m*3 2.73 C 17.7 km/h
63 22-02-2022 05:10:00 6.1 C 5.7 g/m*3 3.18 C 14.5 km/h
64 22-02-2022 05:15:00 6.1 C 5.7 g/m*3 4.04 C 9.7 km/h
65 22-02-2022 05:20:00 6 C 5.66 g/m*3 6 C 4.8 km/h
66 22-02-2022 05:25:00 5.9 C 5.62 g/m*3 4.17 C 8.1 km/h
67 22-02-2022 05:30:00 5.9 C 5.62 g/m*3 3.48 C 11.3 km/h
68 22-02-2022 05:35:00 5.9 C 5.62 g/m*3 2.93 C 14.5 km/h
69 22-02-2022 05:40:00 5.9 C 5.62 g/m*3 2.48 C 17.7 km/h
70 22-02-2022 05:45:00 5.9 C 5.62 g/m*3 2.93 C 14.5 km/h
71 22-02-2022 05:50:00 5.8 C 5.59 g/m*3 3.68 C 9.7 km/h
72 22-02-2022 05:55:00 5.8 C 5.66 g/m*3 5.8 C 4.8 km/h
73 22-02-2022 06:00:00 5.7 C 5.62 g/m*3 3.23 C 11.3 km/h
74 22-02-2022 06:05:00 5.7 C 5.62 g/m*3 3.56 C 9.7 km/h
75 22-02-2022 06:10:00 5.7 C 5.62 g/m*3 3.93 C 8.1 km/h
Sensor: Nr:Datum:Temp:Abs-Feuchte:Windchill:Wind:
Aussen-T/F 76 22-02-2022 06:15:00 5.8 C 5.66 g/m*3 5.8 C 4.8 km/h
77 22-02-2022 06:20:00 5.8 C 5.73 g/m*3 4.52 C 6.4 km/h
78 22-02-2022 06:25:00 5.7 C 5.69 g/m*3 5.7 C 4.8 km/h
79 22-02-2022 06:30:00 5.7 C 5.62 g/m*3 3.56 C 9.7 km/h
80 22-02-2022 06:35:00 5.6 C 5.59 g/m*3 3.44 C 9.7 km/h
81 22-02-2022 06:40:00 5.6 C 5.59 g/m*3 3.11 C 11.3 km/h
82 22-02-2022 06:45:00 5.5 C 5.55 g/m*3 2.7 C 12.9 km/h
83 22-02-2022 06:50:00 5.4 C 5.51 g/m*3 3.58 C 8.1 km/h
84 22-02-2022 06:55:00 5.4 C 5.58 g/m*3 3.58 C 8.1 km/h
85 22-02-2022 07:00:00 5.3 C 5.54 g/m*3 3.46 C 8.1 km/h
86 22-02-2022 07:05:00 5.2 C 5.58 g/m*3 2.96 C 9.7 km/h
87 22-02-2022 07:10:00 5.1 C 5.54 g/m*3 2.51 C 11.3 km/h
88 22-02-2022 07:15:00 4.9 C 5.47 g/m*3 2.27 C 11.3 km/h
89 22-02-2022 07:20:00 4.8 C 5.5 g/m*3 2.49 C 9.7 km/h
90 22-02-2022 07:25:00 4.7 C 5.46 g/m*3 4.7 C 4.8 km/h
91 22-02-2022 07:30:00 4.6 C 5.49 g/m*3 2.64 C 8.1 km/h
92 22-02-2022 07:35:00 4.4 C 5.42 g/m*3 4.4 C 4.8 km/h
93 22-02-2022 07:40:00 4.4 C 5.48 g/m*3 2.01 C 9.7 km/h
94 22-02-2022 07:45:00 4.4 C 5.48 g/m*3 4.4 C 3.2 km/h
95 22-02-2022 07:50:00 4.4 C 5.48 g/m*3 2.01 C 9.7 km/h
96 22-02-2022 07:55:00 4.4 C 5.48 g/m*3 2.01 C 9.7 km/h
97 22-02-2022 08:00:00 4.4 C 5.48 g/m*3 2.9 C 6.4 km/h
98 22-02-2022 08:05:00 4.3 C 5.45 g/m*3 2.29 C 8.1 km/h
99 22-02-2022 08:10:00 4.2 C 5.41 g/m*3 2.17 C 8.1 km/h
100 22-02-2022 08:15:00 4.1 C 5.38 g/m*3 4.1 C 1.6 km/h
Sensor: Nr:Datum:Temp:Abs-Feuchte:Windchill:Wind:
Aussen-T/F 101 22-02-2022 08:20:00 4 C 5.4 g/m*3 1.53 C 9.7 km/h
102 22-02-2022 08:25:00 3.9 C 5.43 g/m*3 2.32 C 6.4 km/h
103 22-02-2022 08:30:00 4 C 5.47 g/m*3 1.53 C 9.7 km/h
104 22-02-2022 08:35:00 4.2 C 5.54 g/m*3 1.77 C 9.7 km/h
105 22-02-2022 08:40:00 4.3 C 5.58 g/m*3 2.29 C 8.1 km/h
106 22-02-2022 08:45:00 4.5 C 5.59 g/m*3 1.48 C 12.9 km/h
107 22-02-2022 08:50:00 4.7 C 5.6 g/m*3 2.37 C 9.7 km/h
108 22-02-2022 08:55:00 4.8 C 5.63 g/m*3 1.85 C 12.9 km/h
109 22-02-2022 09:00:00 4.9 C 5.67 g/m*3 1.46 C 16.1 km/h
110 22-02-2022 09:05:00 5.1 C 5.75 g/m*3 1.95 C 14.5 km/h
111 22-02-2022 09:10:00 5.2 C 5.78 g/m*3 2.34 C 12.9 km/h
112 22-02-2022 09:15:00 5.3 C 5.82 g/m*3 2.2 C 14.5 km/h
113 22-02-2022 09:20:00 5.4 C 5.79 g/m*3 2.08 C 16.1 km/h
114 22-02-2022 09:25:00 5.5 C 5.83 g/m*3 1.78 C 19.3 km/h
115 22-02-2022 09:30:00 5.6 C 5.87 g/m*3 2.83 C 12.9 km/h
116 22-02-2022 09:35:00 5.7 C 5.91 g/m*3 2.69 C 14.5 km/h
117 22-02-2022 09:40:00 5.8 C 5.95 g/m*3 2.81 C 14.5 km/h
118 22-02-2022 09:45:00 5.8 C 5.95 g/m*3 2.81 C 14.5 km/h
119 22-02-2022 09:50:00 5.9 C 5.98 g/m*3 3.8 C 9.7 km/h
120 22-02-2022 09:55:00 6 C 6.02 g/m*3 3.6 C 11.3 km/h
121 22-02-2022 10:00:00 6.1 C 6.06 g/m*3 2.73 C 17.7 km/h
122 22-02-2022 10:05:00 6.2 C 6.1 g/m*3 3.84 C 11.3 km/h
123 22-02-2022 10:10:00 6.2 C 6.1 g/m*3 3.56 C 12.9 km/h
124 22-02-2022 10:15:00 6.3 C 6.14 g/m*3 3.43 C 14.5 km/h
125 22-02-2022 10:20:00 6.4 C 6.11 g/m*3 2.91 C 19.3 km/h
Sensor: Nr:Datum:Temp:Abs-Feuchte:Windchill:Wind:
Aussen-T/F 126 22-02-2022 10:25:00 6.6 C 6.27 g/m*3 3.79 C 14.5 km/h
127 22-02-2022 10:30:00 6.7 C 6.31 g/m*3 3.92 C 14.5 km/h
128 22-02-2022 10:35:00 6.7 C 6.23 g/m*3 3.69 C 16.1 km/h
129 22-02-2022 10:40:00 6.7 C 6.23 g/m*3 3.48 C 17.7 km/h
130 22-02-2022 10:45:00 6.7 C 6.23 g/m*3 4.17 C 12.9 km/h
131 22-02-2022 10:50:00 6.8 C 6.27 g/m*3 4.04 C 14.5 km/h
132 22-02-2022 10:55:00 6.9 C 6.31 g/m*3 3.54 C 19.3 km/h
133 22-02-2022 11:00:00 7.1 C 6.32 g/m*3 3.8 C 19.3 km/h
134 22-02-2022 11:05:00 7.2 C 6.36 g/m*3 4.11 C 17.7 km/h
135 22-02-2022 11:10:00 7.3 C 6.32 g/m*3 3.41 C 25.7 km/h
136 22-02-2022 11:15:00 7.5 C 6.48 g/m*3 4.9 C 14.5 km/h
137 22-02-2022 11:20:00 7.7 C 6.49 g/m*3 4.93 C 16.1 km/h
138 22-02-2022 11:25:00 7.9 C 6.49 g/m*3 4.98 C 17.7 km/h
139 22-02-2022 11:30:00 7.9 C 6.41 g/m*3 5.18 C 16.1 km/h
140 22-02-2022 11:35:00 8 C 6.45 g/m*3 5.11 C 17.7 km/h
141 22-02-2022 11:40:00 8 C 6.53 g/m*3 4.93 C 19.3 km/h
142 22-02-2022 11:45:00 8 C 6.53 g/m*3 5.52 C 14.5 km/h
143 22-02-2022 11:50:00 8.1 C 6.57 g/m*3 5.23 C 17.7 km/h
144 22-02-2022 11:55:00 8.1 C 6.57 g/m*3 4.73 C 22.5 km/h
145 22-02-2022 12:00:00 8.1 C 6.57 g/m*3 4.73 C 22.5 km/h
146 22-02-2022 12:05:00 8.1 C 6.57 g/m*3 4.73 C 22.5 km/h
147 22-02-2022 12:10:00 8.1 C 6.57 g/m*3 4.58 C 24.1 km/h
148 22-02-2022 12:15:00 8.2 C 6.62 g/m*3 5.18 C 19.3 km/h
149 22-02-2022 12:20:00 8.2 C 6.62 g/m*3 5.01 C 20.9 km/h
150 22-02-2022 12:25:00 8.3 C 6.66 g/m*3 5.14 C 20.9 km/h
Sensor: Nr:Datum:Temp:Abs-Feuchte:Windchill:Wind:
Aussen-T/F 151 22-02-2022 12:30:00 8.3 C 6.66 g/m*3 5.89 C 14.5 km/h
152 22-02-2022 12:35:00 8.4 C 6.7 g/m*3 6.24 C 12.9 km/h
153 22-02-2022 12:40:00 8.5 C 6.66 g/m*3 4.95 C 25.7 km/h
154 22-02-2022 12:45:00 8.6 C 6.79 g/m*3 6.25 C 14.5 km/h
155 22-02-2022 12:50:00 8.6 C 6.7 g/m*3 5.52 C 20.9 km/h
156 22-02-2022 12:55:00 8.6 C 6.79 g/m*3 5.52 C 20.9 km/h
157 22-02-2022 13:00:00 8.6 C 6.79 g/m*3 5.86 C 17.7 km/h
158 22-02-2022 13:05:00 8.6 C 6.87 g/m*3 5.08 C 25.7 km/h
159 22-02-2022 13:10:00 8.5 C 6.83 g/m*3 5.56 C 19.3 km/h
160 22-02-2022 13:15:00 8.4 C 6.79 g/m*3 5.8 C 16.1 km/h
161 22-02-2022 13:20:00 8.4 C 6.96 g/m*3 5.61 C 17.7 km/h
162 22-02-2022 13:25:00 8.3 C 7 g/m*3 6.37 C 11.3 km/h
163 22-02-2022 13:30:00 8.2 C 6.95 g/m*3 6.87 C 8.1 km/h
164 22-02-2022 13:35:00 8.2 C 6.95 g/m*3 5.99 C 12.9 km/h
165 22-02-2022 13:40:00 8.4 C 6.96 g/m*3 6.01 C 14.5 km/h
166 22-02-2022 13:45:00 8.5 C 7 g/m*3 6.13 C 14.5 km/h
167 22-02-2022 13:50:00 8.6 C 6.96 g/m*3 5.86 C 17.7 km/h
168 22-02-2022 13:55:00 8.7 C 6.92 g/m*3 5.35 C 24.1 km/h
169 22-02-2022 14:00:00 8.8 C 6.96 g/m*3 6.3 C 16.1 km/h
170 22-02-2022 14:05:00 8.8 C 6.96 g/m*3 6.3 C 16.1 km/h
171 22-02-2022 14:10:00 8.9 C 7.01 g/m*3 6.62 C 14.5 km/h
172 22-02-2022 14:15:00 8.9 C 7.01 g/m*3 6.06 C 19.3 km/h
173 22-02-2022 14:20:00 8.9 C 6.92 g/m*3 6.42 C 16.1 km/h
174 22-02-2022 14:25:00 8.9 C 6.92 g/m*3 5.75 C 22.5 km/h
175 22-02-2022 14:30:00 8.8 C 6.96 g/m*3 5.48 C 24.1 km/h
Sensor: Nr:Datum:Temp:Abs-Feuchte:Windchill:Wind:
Aussen-T/F 176 22-02-2022 14:35:00 8.8 C 6.96 g/m*3 4.97 C 30.6 km/h
177 22-02-2022 14:40:00 8.8 C 6.96 g/m*3 6.11 C 17.7 km/h
178 22-02-2022 14:45:00 8.8 C 7.05 g/m*3 5.62 C 22.5 km/h
179 22-02-2022 14:50:00 9 C 7.14 g/m*3 6.19 C 19.3 km/h
180 22-02-2022 14:55:00 9.2 C 7.14 g/m*3 6.44 C 19.3 km/h
181 22-02-2022 15:00:00 9.2 C 7.14 g/m*3 5.86 C 25.7 km/h
182 22-02-2022 15:05:00 9.1 C 7.1 g/m*3 6.31 C 19.3 km/h
183 22-02-2022 15:10:00 9 C 7.14 g/m*3 5.46 C 27.4 km/h
184 22-02-2022 15:15:00 8.9 C 7.18 g/m*3 5.47 C 25.7 km/h
185 22-02-2022 15:20:00 8.8 C 7.22 g/m*3 5.77 C 20.9 km/h
186 22-02-2022 15:25:00 8.7 C 7.18 g/m*3 6.17 C 16.1 km/h
187 22-02-2022 15:30:00 8.7 C 7.18 g/m*3 5.98 C 17.7 km/h
188 22-02-2022 15:35:00 8.8 C 7.22 g/m*3 6.11 C 17.7 km/h
189 22-02-2022 15:40:00 8.8 C 7.22 g/m*3 6.11 C 17.7 km/h
190 22-02-2022 15:45:00 8.8 C 7.22 g/m*3 5.93 C 19.3 km/h
191 22-02-2022 15:50:00 8.8 C 7.22 g/m*3 5.62 C 22.5 km/h
192 22-02-2022 15:55:00 8.7 C 7.18 g/m*3 5.49 C 22.5 km/h
193 22-02-2022 16:00:00 8.7 C 7.18 g/m*3 5.98 C 17.7 km/h
194 22-02-2022 16:05:00 8.7 C 7.18 g/m*3 5.81 C 19.3 km/h
195 22-02-2022 16:10:00 8.7 C 7.35 g/m*3 6.17 C 16.1 km/h
196 22-02-2022 16:15:00 8.6 C 7.3 g/m*3 5.52 C 20.9 km/h
197 22-02-2022 16:20:00 8.6 C 7.3 g/m*3 5.37 C 22.5 km/h
198 22-02-2022 16:25:00 8.6 C 7.3 g/m*3 5.37 C 22.5 km/h
199 22-02-2022 16:30:00 8.6 C 7.3 g/m*3 5.86 C 17.7 km/h
200 22-02-2022 16:35:00 8.6 C 7.3 g/m*3 6.05 C 16.1 km/h
Sensor: Nr:Datum:Temp:Abs-Feuchte:Windchill:Wind:
Aussen-T/F 201 22-02-2022 16:40:00 8.6 C 7.3 g/m*3 5.37 C 22.5 km/h
202 22-02-2022 16:45:00 8.6 C 7.3 g/m*3 5.86 C 17.7 km/h
203 22-02-2022 16:50:00 8.6 C 7.3 g/m*3 5.68 C 19.3 km/h
204 22-02-2022 16:55:00 8.6 C 7.3 g/m*3 5.37 C 22.5 km/h
205 22-02-2022 17:00:00 8.6 C 7.3 g/m*3 5.52 C 20.9 km/h
206 22-02-2022 17:05:00 8.6 C 7.3 g/m*3 5.52 C 20.9 km/h
207 22-02-2022 17:10:00 8.6 C 7.3 g/m*3 6.48 C 12.9 km/h
208 22-02-2022 17:15:00 8.6 C 7.3 g/m*3 5.68 C 19.3 km/h
209 22-02-2022 17:20:00 8.6 C 7.39 g/m*3 5.68 C 19.3 km/h
210 22-02-2022 17:25:00 8.6 C 7.39 g/m*3 5.86 C 17.7 km/h
211 22-02-2022 17:30:00 8.6 C 7.39 g/m*3 5.37 C 22.5 km/h
212 22-02-2022 17:35:00 8.6 C 7.39 g/m*3 5.52 C 20.9 km/h
213 22-02-2022 17:40:00 8.7 C 7.44 g/m*3 5.65 C 20.9 km/h
214 22-02-2022 17:45:00 8.7 C 7.44 g/m*3 5.49 C 22.5 km/h
215 22-02-2022 17:50:00 8.7 C 7.44 g/m*3 5.21 C 25.7 km/h
216 22-02-2022 17:55:00 8.7 C 7.44 g/m*3 5.98 C 17.7 km/h
217 22-02-2022 18:00:00 8.7 C 7.44 g/m*3 5.65 C 20.9 km/h
218 22-02-2022 18:05:00 8.7 C 7.44 g/m*3 5.65 C 20.9 km/h
219 22-02-2022 18:10:00 8.8 C 7.49 g/m*3 5.62 C 22.5 km/h
220 22-02-2022 18:15:00 8.8 C 7.49 g/m*3 5.93 C 19.3 km/h
221 22-02-2022 18:20:00 8.8 C 7.49 g/m*3 5.34 C 25.7 km/h
222 22-02-2022 18:25:00 8.8 C 7.49 g/m*3 5.48 C 24.1 km/h
223 22-02-2022 18:30:00 8.9 C 7.53 g/m*3 5.75 C 22.5 km/h
224 22-02-2022 18:35:00 8.9 C 7.53 g/m*3 6.06 C 19.3 km/h
225 22-02-2022 18:40:00 8.9 C 7.53 g/m*3 5.75 C 22.5 km/h
Sensor: Nr:Datum:Temp:Abs-Feuchte:Windchill:Wind:
Aussen-T/F 226 22-02-2022 18:45:00 8.9 C 7.45 g/m*3 5.6 C 24.1 km/h
227 22-02-2022 18:50:00 9 C 7.58 g/m*3 5.34 C 29 km/h
228 22-02-2022 18:55:00 9 C 7.58 g/m*3 5.6 C 25.7 km/h
229 22-02-2022 19:00:00 9 C 7.58 g/m*3 6.19 C 19.3 km/h
230 22-02-2022 19:05:00 9 C 7.58 g/m*3 5.87 C 22.5 km/h
231 22-02-2022 19:10:00 9 C 7.58 g/m*3 6.19 C 19.3 km/h
232 22-02-2022 19:15:00 9 C 7.58 g/m*3 6.54 C 16.1 km/h
233 22-02-2022 19:20:00 9.1 C 7.63 g/m*3 6.48 C 17.7 km/h
234 22-02-2022 19:25:00 9.1 C 7.63 g/m*3 6.48 C 17.7 km/h
235 22-02-2022 19:30:00 9.1 C 7.72 g/m*3 6.15 C 20.9 km/h
236 22-02-2022 19:35:00 9.1 C 7.72 g/m*3 5.73 C 25.7 km/h
237 22-02-2022 19:40:00 9.1 C 7.72 g/m*3 6.15 C 20.9 km/h
238 22-02-2022 19:45:00 9.1 C 7.72 g/m*3 6.48 C 17.7 km/h
239 22-02-2022 19:50:00 9.1 C 7.72 g/m*3 6.15 C 20.9 km/h
240 22-02-2022 19:55:00 9.1 C 7.72 g/m*3 6 C 22.5 km/h
241 22-02-2022 20:00:00 9.2 C 7.77 g/m*3 6.28 C 20.9 km/h
242 22-02-2022 20:05:00 9.1 C 7.72 g/m*3 5.86 C 24.1 km/h
243 22-02-2022 20:10:00 9.1 C 7.81 g/m*3 6.15 C 20.9 km/h
244 22-02-2022 20:15:00 9.1 C 7.81 g/m*3 6 C 22.5 km/h
245 22-02-2022 20:20:00 9.1 C 7.81 g/m*3 6 C 22.5 km/h
246 22-02-2022 20:25:00 9.1 C 7.81 g/m*3 6.15 C 20.9 km/h
247 22-02-2022 20:30:00 9.1 C 7.9 g/m*3 6.67 C 16.1 km/h
248 22-02-2022 20:35:00 9.1 C 7.9 g/m*3 6.87 C 14.5 km/h
249 22-02-2022 20:40:00 9.1 C 7.9 g/m*3 7.09 C 12.9 km/h
250 22-02-2022 20:45:00 9.1 C 7.9 g/m*3 6.48 C 17.7 km/h
Sensor: Nr:Datum:Temp:Abs-Feuchte:Windchill:Wind:
Aussen-T/F 251 22-02-2022 20:50:00 9.1 C 7.9 g/m*3 6.48 C 17.7 km/h
252 22-02-2022 20:55:00 9.2 C 7.95 g/m*3 6.28 C 20.9 km/h
253 22-02-2022 21:00:00 9.2 C 7.95 g/m*3 6.61 C 17.7 km/h
254 22-02-2022 21:05:00 9.3 C 8 g/m*3 6.56 C 19.3 km/h
255 22-02-2022 21:10:00 9.3 C 7.91 g/m*3 6.73 C 17.7 km/h
256 22-02-2022 21:15:00 9.4 C 7.96 g/m*3 6.38 C 22.5 km/h
257 22-02-2022 21:20:00 9.4 C 8.05 g/m*3 7.04 C 16.1 km/h
258 22-02-2022 21:25:00 9.4 C 8.05 g/m*3 6.69 C 19.3 km/h
259 22-02-2022 21:30:00 9.3 C 8.09 g/m*3 6.92 C 16.1 km/h
260 22-02-2022 21:35:00 9.3 C 8.09 g/m*3 7.58 C 11.3 km/h
261 22-02-2022 21:40:00 9.2 C 8.13 g/m*3 6.44 C 19.3 km/h
262 22-02-2022 21:45:00 9.2 C 8.13 g/m*3 8.05 C 8.1 km/h
263 22-02-2022 21:50:00 9.1 C 8.07 g/m*3 7.33 C 11.3 km/h
264 22-02-2022 21:55:00 9.1 C 8.16 g/m*3 7.09 C 12.9 km/h
265 22-02-2022 22:00:00 9.1 C 8.16 g/m*3 6.31 C 19.3 km/h
266 22-02-2022 22:05:00 9.1 C 8.16 g/m*3 7.09 C 12.9 km/h
267 22-02-2022 22:10:00 9.1 C 8.16 g/m*3 6.15 C 20.9 km/h
268 22-02-2022 22:15:00 9.1 C 8.16 g/m*3 7.09 C 12.9 km/h
269 22-02-2022 22:20:00 9.1 C 8.16 g/m*3 6.87 C 14.5 km/h
270 22-02-2022 22:25:00 9 C 8.11 g/m*3 5.6 C 25.7 km/h
271 22-02-2022 22:30:00 8.4 C 7.55 g/m*3 5.61 C 17.7 km/h
272 22-02-2022 22:35:00 7.9 C 7.15 g/m*3 4.47 C 22.5 km/h
273 22-02-2022 22:40:00 7.8 C 7.18 g/m*3 5.27 C 14.5 km/h
274 22-02-2022 22:45:00 7.7 C 7.14 g/m*3 6.71 C 6.4 km/h
275 22-02-2022 22:50:00 7.5 C 7.12 g/m*3 6.48 C 6.4 km/h
Sensor: Nr:Datum:Temp:Abs-Feuchte:Windchill:Wind:
Aussen-T/F 276 22-02-2022 22:55:00 7.3 C 7.03 g/m*3 5.16 C 11.3 km/h
277 22-02-2022 23:00:00 7.2 C 6.99 g/m*3 5.04 C 11.3 km/h
278 22-02-2022 23:05:00 7.2 C 6.99 g/m*3 7.2 C 4.8 km/h
279 22-02-2022 23:10:00 7.1 C 7.02 g/m*3 7.1 C 4.8 km/h
280 22-02-2022 23:15:00 7.1 C 7.02 g/m*3 6.02 C 6.4 km/h
281 22-02-2022 23:20:00 7 C 6.9 g/m*3 5.46 C 8.1 km/h
282 22-02-2022 23:25:00 7 C 6.97 g/m*3 7 C 3.2 km/h
283 22-02-2022 23:30:00 6.9 C 6.93 g/m*3 6.9 C 1.6 km/h
284 22-02-2022 23:35:00 6.8 C 6.88 g/m*3 6.8 C 3.2 km/h
285 22-02-2022 23:40:00 6.7 C 6.84 g/m*3 6.7 C 4.8 km/h
286 22-02-2022 23:45:00 6.6 C 6.87 g/m*3 6.6 C 3.2 km/h
287 22-02-2022 23:50:00 6.5 C 6.82 g/m*3 6.5 C 4.8 km/h
288 22-02-2022 23:55:00 6.4 C 6.78 g/m*3 6.4 C 3.2 km/h

Legende:
   Min
   Max


Maximal/Minimal-Werte vom 22.02.2022 - 22.02.2022

Sensor Min Max Avg
Temp
(Aussen-T/F)
3.9 °C
22-02-2022  08:25:00
9.4 °C
22-02-2022  21:15:00
7.36 °C
Abs-Feuchte
(Aussen-T/F)
5.38 g/m*3
22-02-2022  08:15:00
8.16 g/m*3
22-02-2022  21:55:00
6.56 g/m*3
Windchill
(Aussen-T/F)
1.46 C
22-02-2022  09:00:00
8.05 C
22-02-2022  21:45:00
4.79 C

Die Daten stammen von einer Davis Vantage Pro 2 Wetter-Station und werden unter Linux mit der Software wview2wettercgi und aufbereitet. Alle Angaben erfolgen ohne Gewähr für ihre Vollständigkeit oder Richtigkeit.
Kontakt: Rainer Krienke krienke@uni-koblenz.de . Meine Webseiten an der Uni Koblenz oder privat.
Version: $Revision: 0.78 $